createdAt,value
2017-04-17T00:00:53.322Z,52.71
2017-04-17T00:01:53.337Z,52.61
2017-04-17T00:02:53.360Z,52.9
2017-04-17T00:03:53.375Z,52.52
2017-04-17T00:04:53.391Z,53.09
2017-04-17T00:05:53.405Z,52.42
2017-04-17T00:06:53.423Z,53
2017-04-17T00:07:53.444Z,52.23
2017-04-17T00:08:53.460Z,53.38
2017-04-17T00:09:53.562Z,52.33
2017-04-17T00:10:53.493Z,52.8
2017-04-17T00:11:53.509Z,53.38
2017-04-17T00:12:53.523Z,52.9
2017-04-17T00:13:53.538Z,52.61
2017-04-17T00:14:53.558Z,53.28
2017-04-17T00:15:53.574Z,53.47
2017-04-17T00:16:53.590Z,52.8
2017-04-17T00:17:53.299Z,52.9
2017-04-17T00:18:53.312Z,52.9
2017-04-17T00:19:53.328Z,53.19
2017-04-17T00:20:53.659Z,53
2017-04-17T00:21:53.360Z,53.19
2017-04-17T00:22:53.377Z,53.66
2017-04-17T00:23:53.708Z,53.56
2017-04-17T00:24:53.722Z,53.85
2017-04-17T00:25:53.428Z,53.66
2017-04-17T00:26:53.445Z,53.66
2017-04-17T00:27:53.980Z,53.85
2017-04-17T00:28:53.791Z,53.66
2017-04-17T00:29:53.810Z,53.28
2017-04-17T00:30:53.824Z,53.28
2017-04-17T00:31:53.527Z,53.38
2017-04-17T00:32:53.872Z,53.56
2017-04-17T00:33:53.876Z,53.28
2017-04-17T00:34:53.892Z,54.33
2017-04-17T00:35:53.902Z,53.28
2017-04-17T00:36:53.925Z,53.95
2017-04-17T00:37:53.943Z,53.95
2017-04-17T00:38:53.958Z,54.14
2017-04-17T00:39:53.973Z,53.47
2017-04-17T00:40:53.991Z,53.47
2017-04-17T00:41:53.691Z,53.76
2017-04-17T00:42:54.025Z,53.56
2017-04-17T00:43:54.040Z,53.66
2017-04-17T00:44:54.054Z,53.76
2017-04-17T00:45:53.763Z,54.24
2017-04-17T00:46:54.090Z,53.95
2017-04-17T00:47:54.112Z,53.76
2017-04-17T00:48:54.121Z,54.14
2017-04-17T00:49:54.143Z,54.14
2017-04-17T00:50:54.156Z,54.71
2017-04-17T00:51:54.169Z,53.95
2017-04-17T00:52:54.188Z,54.61
2017-04-17T00:53:54.207Z,54.52
2017-04-17T00:54:54.222Z,54.14
2017-04-17T00:55:54.236Z,53.85
2017-04-17T00:56:54.258Z,54.52
2017-04-17T00:58:00.540Z,54.52
2017-04-17T00:58:54.290Z,54.61
2017-04-17T00:59:54.310Z,54.61
2017-04-17T01:00:54.324Z,54.9
2017-04-17T01:01:54.338Z,54.9
2017-04-17T01:02:54.354Z,54.9
2017-04-17T01:03:54.370Z,55
2017-04-17T01:04:54.387Z,54.9
2017-04-17T01:05:54.403Z,55
2017-04-17T01:06:54.418Z,54.9
2017-04-17T01:07:54.438Z,54.9
2017-04-17T01:08:54.452Z,54.8
2017-04-17T01:09:54.468Z,55.09
2017-04-17T01:10:54.484Z,55.09
2017-04-17T01:11:54.500Z,55
2017-04-17T01:12:54.518Z,54.9
2017-04-17T01:13:54.533Z,54.8
2017-04-17T01:14:54.550Z,55.47
2017-04-17T01:15:54.569Z,55.38
2017-04-17T01:16:54.584Z,55.38
2017-04-17T01:17:54.601Z,55.28
2017-04-17T01:18:54.617Z,54.88
2017-04-17T01:19:54.634Z,55.09
2017-04-17T01:20:54.650Z,54.8
2017-04-17T01:21:54.666Z,55.28
2017-04-17T01:22:54.682Z,55.07
2017-04-17T01:23:54.699Z,55.07
2017-04-17T01:24:54.715Z,55.09
2017-04-17T01:25:54.730Z,54.97
2017-04-17T01:26:54.747Z,55.76
2017-04-17T01:27:54.769Z,55.38
2017-04-17T01:28:54.777Z,55.16
2017-04-17T01:29:54.798Z,55.26
2017-04-17T01:30:54.816Z,55.35
2017-04-17T01:31:54.828Z,55.07
2017-04-17T01:32:54.846Z,55.54
2017-04-17T01:33:54.863Z,55.26
2017-04-17T01:34:54.878Z,55.73
2017-04-17T01:35:54.896Z,55.26
2017-04-17T01:36:54.905Z,55.16
2017-04-17T01:37:54.927Z,55.63
2017-04-17T01:38:54.955Z,55.44
2017-04-17T01:39:54.959Z,55.26
2017-04-17T01:40:54.974Z,55.35
2017-04-17T01:41:54.992Z,55.54
2017-04-17T01:42:55.010Z,55.35
2017-04-17T01:43:55.026Z,55.26
2017-04-17T01:44:55.042Z,55.54
2017-04-17T01:45:55.055Z,55.16
2017-04-17T01:46:55.071Z,55.35
2017-04-17T01:47:55.086Z,55.16
2017-04-17T01:48:55.109Z,55.83
2017-04-17T01:49:55.121Z,55.92
2017-04-17T01:50:55.137Z,55.63
2017-04-17T01:51:55.153Z,56.11
2017-04-17T01:52:55.171Z,55.73
2017-04-17T01:53:55.183Z,55.63
2017-04-17T01:54:55.201Z,55.73
2017-04-17T01:55:55.221Z,56.11
2017-04-17T01:56:55.239Z,56.59
2017-04-17T01:57:55.443Z,55.92
2017-04-17T01:58:55.271Z,55.73
2017-04-17T01:59:54.971Z,56.68
2017-04-17T02:00:55.300Z,56.3
2017-04-17T02:01:55.316Z,56.49
2017-04-17T02:02:55.342Z,56.11
2017-04-17T02:03:55.348Z,56.49
2017-04-17T02:04:55.365Z,56.3
2017-04-17T02:05:55.381Z,56.4
2017-04-17T02:06:55.405Z,56.49
2017-04-17T02:07:55.102Z,56.4
2017-04-17T02:08:55.427Z,56.4
2017-04-17T02:09:55.448Z,56.4
2017-04-17T02:10:55.464Z,56.3
2017-04-17T02:11:55.487Z,56.59
2017-04-17T02:12:55.497Z,56.4
2017-04-17T02:13:55.509Z,56.49
2017-04-17T02:14:55.526Z,56.11
2017-04-17T02:15:55.539Z,56.49
2017-04-17T02:16:55.558Z,56.59
2017-04-17T02:17:55.577Z,56.49
2017-04-17T02:18:55.589Z,56.97
2017-04-17T02:19:55.607Z,56.3
2017-04-17T02:20:55.626Z,56.68
2017-04-17T02:21:55.638Z,56.49
2017-04-17T02:22:55.659Z,56.4
2017-04-17T02:23:55.677Z,56.4
2017-04-17T02:24:55.694Z,56.4
2017-04-17T02:25:55.704Z,56.68
2017-04-17T02:26:55.719Z,56.4
2017-04-17T02:27:55.735Z,56.68
2017-04-17T02:28:55.755Z,56.21
2017-04-17T02:29:55.770Z,56.97
2017-04-17T02:30:55.785Z,56.78
2017-04-17T02:31:55.803Z,56.78
2017-04-17T02:32:55.814Z,56.78
2017-04-17T02:33:55.833Z,56.68
2017-04-17T02:34:55.853Z,56.97
2017-04-17T02:35:55.866Z,57.07
2017-04-17T02:36:55.880Z,57.07
2017-04-17T02:37:55.898Z,56.78
2017-04-17T02:38:55.913Z,56.78
2017-04-17T02:39:55.933Z,56.68
2017-04-17T02:40:55.946Z,56.68
2017-04-17T02:41:55.961Z,56.87
2017-04-17T02:42:55.979Z,57.07
2017-04-17T02:43:55.995Z,56.87
2017-04-17T02:44:56.009Z,56.68
2017-04-17T02:45:56.025Z,56.78
2017-04-17T02:46:56.052Z,56.97
2017-04-17T02:47:56.057Z,57.16
2017-04-17T02:48:56.071Z,56.78
2017-04-17T02:49:56.090Z,56.87
2017-04-17T02:50:56.107Z,57.07
2017-04-17T02:51:56.121Z,57.35
2017-04-17T02:52:56.135Z,56.97
2017-04-17T02:53:56.157Z,57.45
2017-04-17T02:54:56.164Z,57.45
2017-04-17T02:55:56.191Z,57.07
2017-04-17T02:56:56.199Z,57.26
2017-04-17T02:57:56.219Z,56.87
2017-04-17T02:58:56.231Z,57.16
2017-04-17T02:59:56.251Z,57.07
2017-04-17T03:00:56.264Z,57.45
2017-04-17T03:01:56.282Z,57.45
2017-04-17T03:02:56.295Z,57.26
2017-04-17T03:03:56.309Z,57.82
2017-04-17T03:04:56.327Z,57.54
2017-04-17T03:05:56.345Z,57.45
2017-04-17T03:06:56.361Z,57.64
2017-04-17T03:07:56.379Z,57.54
2017-04-17T03:08:56.390Z,57.73
2017-04-17T03:09:56.405Z,57.54
2017-04-17T03:10:56.423Z,57.54
2017-04-17T03:11:56.439Z,57.54
2017-04-17T03:12:56.458Z,57.45
2017-04-17T03:13:56.469Z,57.51
2017-04-17T03:14:56.487Z,57.7
2017-04-17T03:15:56.506Z,57.42
2017-04-17T03:16:56.521Z,57.82
2017-04-17T03:17:56.537Z,57.6
2017-04-17T03:18:56.552Z,57.45
2017-04-17T03:19:56.565Z,57.7
2017-04-17T03:20:56.581Z,57.99
2017-04-17T03:21:56.597Z,57.99
2017-04-17T03:22:56.617Z,57.89
2017-04-17T03:23:56.625Z,57.8
2017-04-17T03:24:56.646Z,58.11
2017-04-17T03:25:56.661Z,57.45
2017-04-17T03:26:56.685Z,57.7
2017-04-17T03:27:56.694Z,57.42
2017-04-17T03:28:56.710Z,57.92
2017-04-17T03:29:56.725Z,58.11
2017-04-17T03:30:56.739Z,57.7
2017-04-17T03:31:56.778Z,58.08
2017-04-17T03:32:56.774Z,58.08
2017-04-17T03:33:56.886Z,57.42
2017-04-17T03:34:56.895Z,57.8
2017-04-17T03:35:56.917Z,57.8
2017-04-17T03:36:56.926Z,57.8
2017-04-17T03:37:56.934Z,57.6
2017-04-17T03:38:56.944Z,57.8
2017-04-17T03:39:56.953Z,57.7
2017-04-17T03:40:56.951Z,57.89
2017-04-17T03:41:56.959Z,57.89
2017-04-17T03:42:56.968Z,58.08
2017-04-17T03:43:56.977Z,57.7
2017-04-17T03:44:56.985Z,57.7
2017-04-17T03:45:56.976Z,57.42
2017-04-17T03:46:56.994Z,57.7
2017-04-17T03:47:57.009Z,57.7
2017-04-17T03:48:57.024Z,57.51
2017-04-17T03:49:57.036Z,57.89
2017-04-17T03:50:57.059Z,57.8
2017-04-17T03:51:57.073Z,57.8
2017-04-17T03:52:57.087Z,57.89
2017-04-17T03:53:57.106Z,58.28
2017-04-17T03:54:57.117Z,57.8
2017-04-17T03:55:57.133Z,58.37
2017-04-17T03:56:57.151Z,58.08
2017-04-17T03:57:57.164Z,58.28
2017-04-17T03:58:57.184Z,58.37
2017-04-17T03:59:57.199Z,58.37
2017-04-17T04:00:57.213Z,58.08
2017-04-17T04:01:57.234Z,58.28
2017-04-17T04:02:57.245Z,57.89
2017-04-17T04:03:57.264Z,57.89
2017-04-17T04:04:57.281Z,57.89
2017-04-17T04:05:57.291Z,57.8
2017-04-17T04:06:57.308Z,58.18
2017-04-17T04:07:57.327Z,57.7
2017-04-17T04:08:57.343Z,58.47
2017-04-17T04:09:57.357Z,58.37
2017-04-17T04:10:57.369Z,58.65
2017-04-17T04:11:57.388Z,58.65
2017-04-17T04:12:57.402Z,58.65
2017-04-17T04:13:57.415Z,57.8
2017-04-17T04:14:57.433Z,58.28
2017-04-17T04:15:57.137Z,57.89
2017-04-17T04:16:57.157Z,58.37
2017-04-17T04:17:57.483Z,57.89
2017-04-17T04:18:57.494Z,57.7
2017-04-17T04:19:57.515Z,58.37
2017-04-17T04:20:57.524Z,57.89
2017-04-17T04:21:57.543Z,58.37
2017-04-17T04:22:57.564Z,58.37
2017-04-17T04:23:57.574Z,58.18
2017-04-17T04:24:57.591Z,57.89
2017-04-17T04:25:57.607Z,58.28
2017-04-17T04:26:57.626Z,58.08
2017-04-17T04:27:57.643Z,57.99
2017-04-17T04:28:57.655Z,58.37
2017-04-17T04:29:57.670Z,58.56
2017-04-17T04:30:57.684Z,58.08
2017-04-17T04:31:57.708Z,57.99
2017-04-17T04:32:57.719Z,58.47
2017-04-17T04:33:57.737Z,57.99
2017-04-17T04:34:57.859Z,58.56
2017-04-17T04:35:57.878Z,58.75
2017-04-17T04:36:57.898Z,58.75
2017-04-17T04:37:57.830Z,58.56
2017-04-17T04:38:57.882Z,58.65
2017-04-17T04:39:57.877Z,58.56
2017-04-17T04:40:57.887Z,58.65
2017-04-17T04:41:57.896Z,58.75
2017-04-17T04:42:57.904Z,57.99
2017-04-17T04:43:57.913Z,57.99
2017-04-17T04:44:57.921Z,58.56
2017-04-17T04:45:57.981Z,58.65
2017-04-17T04:46:57.989Z,58.65
2017-04-17T04:47:58.001Z,58.56
2017-04-17T04:48:58.008Z,58.56
2017-04-17T04:49:58.006Z,58.47
2017-04-17T04:50:58.013Z,58.47
2017-04-17T04:51:58.023Z,58.56
2017-04-17T04:52:58.037Z,58.56
2017-04-17T04:53:58.042Z,58.65
2017-04-17T04:54:58.157Z,58.56
2017-04-17T04:55:58.165Z,58.56
2017-04-17T04:56:58.174Z,58.56
2017-04-17T04:57:58.107Z,58.47
2017-04-17T04:58:58.119Z,58.56
2017-04-17T04:59:58.141Z,58.56
2017-04-17T05:00:58.154Z,58.56
2017-04-17T05:01:58.191Z,58.56
2017-04-17T05:02:58.200Z,58.56
2017-04-17T05:03:58.198Z,58.47
2017-04-17T05:04:58.213Z,58.56
2017-04-17T05:05:58.225Z,58.56
2017-04-17T05:06:58.242Z,58.56
2017-04-17T05:07:58.264Z,58.47
2017-04-17T05:08:58.278Z,58.47
2017-04-17T05:09:58.293Z,58.18
2017-04-17T05:10:58.307Z,58.37
2017-04-17T05:11:58.322Z,58.37
2017-04-17T05:12:58.343Z,58.37
2017-04-17T05:13:58.355Z,58.56
2017-04-17T05:14:58.370Z,58.37
2017-04-17T05:15:58.385Z,58.28
2017-04-17T05:16:58.398Z,58.28
2017-04-17T05:17:58.417Z,58.56
2017-04-17T05:18:58.430Z,58.84
2017-04-17T05:19:58.448Z,59.13
2017-04-17T05:20:58.462Z,58.94
2017-04-17T05:21:58.478Z,59.23
2017-04-17T05:22:58.499Z,59.23
2017-04-17T05:23:58.513Z,58.47
2017-04-17T05:24:58.526Z,58.47
2017-04-17T05:25:58.545Z,58.47
2017-04-17T05:26:58.553Z,58.84
2017-04-17T05:27:58.571Z,58.94
2017-04-17T05:28:58.588Z,59.13
2017-04-17T05:29:58.602Z,58.94
2017-04-17T05:30:58.617Z,59.03
2017-04-17T05:31:58.635Z,58.94
2017-04-17T05:32:58.651Z,58.94
2017-04-17T05:33:58.662Z,58.84
2017-04-17T05:34:58.681Z,58.84
2017-04-17T05:35:58.693Z,58.65
2017-04-17T05:36:58.712Z,58.75
2017-04-17T05:37:58.729Z,58.94
2017-04-17T05:38:58.744Z,58.75
2017-04-17T05:39:58.763Z,58.75
2017-04-17T05:40:58.773Z,59.03
2017-04-17T05:41:58.791Z,58.94
2017-04-17T05:42:58.805Z,58.94
2017-04-17T05:43:58.817Z,58.75
2017-04-17T05:44:58.835Z,58.84
2017-04-17T05:45:58.851Z,58.84
2017-04-17T05:46:59.021Z,58.94
2017-04-17T05:47:58.885Z,58.75
2017-04-17T05:48:58.900Z,58.75
2017-04-17T05:49:58.914Z,58.65
2017-04-17T05:50:58.926Z,58.75
2017-04-17T05:51:58.944Z,58.94
2017-04-17T05:52:58.959Z,58.65
2017-04-17T05:53:58.977Z,58.94
2017-04-17T05:54:59.005Z,58.75
2017-04-17T05:55:59.007Z,58.75
2017-04-17T05:56:59.021Z,58.94
2017-04-17T05:57:59.039Z,58.94
2017-04-17T05:58:59.057Z,58.94
2017-04-17T05:59:59.070Z,59.03
2017-04-17T06:00:59.086Z,58.84
2017-04-17T06:01:59.100Z,58.94
2017-04-17T06:02:59.118Z,58.75
2017-04-17T06:03:59.130Z,59.13
2017-04-17T06:04:59.145Z,58.75
2017-04-17T06:05:59.162Z,58.84
2017-04-17T06:06:59.175Z,58.65
2017-04-17T06:07:59.195Z,58.65
2017-04-17T06:08:59.208Z,59.42
2017-04-17T06:09:59.227Z,58.84
2017-04-17T06:10:59.239Z,59.51
2017-04-17T06:11:59.256Z,59.51
2017-04-17T06:12:59.272Z,58.94
2017-04-17T06:13:59.285Z,58.94
2017-04-17T06:14:59.308Z,58.94
2017-04-17T06:15:59.317Z,58.75
2017-04-17T06:16:59.332Z,58.65
2017-04-17T06:17:59.348Z,58.78
2017-04-17T06:18:59.367Z,59.45
2017-04-17T06:19:59.377Z,58.84
2017-04-17T06:20:59.394Z,59.16
2017-04-17T06:21:59.590Z,59.13
2017-04-17T06:22:59.429Z,58.75
2017-04-17T06:23:59.441Z,58.78
2017-04-17T06:24:59.460Z,58.78
2017-04-17T06:25:59.472Z,58.97
2017-04-17T06:26:59.487Z,59.16
2017-04-17T06:27:59.506Z,58.87
2017-04-17T06:28:59.522Z,58.87
2017-04-17T06:29:59.541Z,58.78
2017-04-17T06:30:59.553Z,58.78
2017-04-17T06:31:59.568Z,58.87
2017-04-17T06:32:59.583Z,59.16
2017-04-17T06:33:59.602Z,58.87
2017-04-17T06:34:59.613Z,58.87
2017-04-17T06:35:59.630Z,58.87
2017-04-17T06:36:59.768Z,58.78
2017-04-17T06:37:59.767Z,58.78
2017-04-17T06:38:59.367Z,58.78
2017-04-17T06:39:59.786Z,59.54
2017-04-17T06:40:59.807Z,58.87
2017-04-17T06:41:59.816Z,59.45
2017-04-17T06:42:59.826Z,59.06
2017-04-17T06:43:59.835Z,59.06
2017-04-17T06:44:59.845Z,59.35
2017-04-17T06:45:59.842Z,58.78
2017-04-17T06:46:59.849Z,58.78
2017-04-17T06:47:59.860Z,58.87
2017-04-17T06:48:59.860Z,58.69
2017-04-17T06:49:59.929Z,58.69
2017-04-17T06:50:59.938Z,58.97
2017-04-17T06:51:59.946Z,59.16
2017-04-17T06:52:59.944Z,58.87
2017-04-17T06:53:59.954Z,58.78
2017-04-17T06:55:00.062Z,58.97
2017-04-17T06:56:00.070Z,58.87
2017-04-17T06:57:00.059Z,58.69
2017-04-17T06:58:00.078Z,58.87
2017-04-17T06:59:00.089Z,58.87
2017-04-17T07:00:00.105Z,58.78
2017-04-17T07:01:00.218Z,58.97
2017-04-17T07:02:00.142Z,58.78
2017-04-17T07:03:00.207Z,58.78
2017-04-17T07:04:00.315Z,59.26
2017-04-17T07:05:00.223Z,58.87
2017-04-17T07:06:00.531Z,58.87
2017-04-17T07:07:00.235Z,58.87
2017-04-17T07:08:00.239Z,59.09
2017-04-17T07:09:00.250Z,59.06
2017-04-17T07:10:00.257Z,58.78
2017-04-17T07:11:00.397Z,58.87
2017-04-17T07:12:00.405Z,59.35
2017-04-17T07:13:00.406Z,59.19
2017-04-17T07:14:00.422Z,58.97
2017-04-17T07:15:00.432Z,59.35
2017-04-17T07:16:00.447Z,59.09
2017-04-17T07:17:00.420Z,59.19
2017-04-17T07:18:00.398Z,59.38
2017-04-17T07:19:00.396Z,59.28
2017-04-17T07:20:00.403Z,59
2017-04-17T07:21:00.444Z,59.28
2017-04-17T07:22:00.417Z,59.28
2017-04-17T07:23:00.423Z,59
2017-04-17T07:24:00.436Z,59.28
2017-04-17T07:25:00.433Z,59
2017-04-17T07:26:00.478Z,59.38
2017-04-17T07:27:00.451Z,58.81
2017-04-17T07:28:00.461Z,58.62
2017-04-17T07:29:00.493Z,59
2017-04-17T07:30:00.492Z,58.91
2017-04-17T07:31:00.637Z,59.09
2017-04-17T07:32:00.526Z,58.91
2017-04-17T07:33:00.538Z,58.81
2017-04-17T07:34:00.558Z,59
2017-04-17T07:35:00.571Z,59
2017-04-17T07:36:00.586Z,58.91
2017-04-17T07:37:00.601Z,58.72
2017-04-17T07:38:00.626Z,59
2017-04-17T07:39:00.640Z,59
2017-04-17T07:40:00.790Z,59.19
2017-04-17T07:41:00.667Z,58.52
2017-04-17T07:42:00.698Z,58.43
2017-04-17T07:43:00.388Z,58.62
2017-04-17T07:44:00.716Z,58.33
2017-04-17T07:45:00.737Z,58.33
2017-04-17T07:46:00.752Z,58.52
2017-04-17T07:47:00.765Z,58.72
2017-04-17T07:48:00.790Z,58.43
2017-04-17T07:49:00.798Z,58.43
2017-04-17T07:50:00.818Z,58.52
2017-04-17T07:51:00.833Z,58.81
2017-04-17T07:52:00.845Z,58.72
2017-04-17T07:53:00.863Z,58.14
2017-04-17T07:54:00.883Z,57.76
2017-04-17T07:55:00.892Z,57.76
2017-04-17T07:56:00.921Z,57.7
2017-04-17T07:57:00.930Z,58.17
2017-04-17T07:58:00.943Z,57.98
2017-04-17T07:59:00.960Z,57.7
2017-04-17T08:00:00.985Z,57.89
2017-04-17T08:01:00.992Z,57.79
2017-04-17T08:02:01.007Z,57.89
2017-04-17T08:03:01.030Z,57.6
2017-04-17T08:04:01.051Z,57.89
2017-04-17T08:05:01.061Z,57.79
2017-04-17T08:06:01.077Z,58.17
2017-04-17T08:07:01.091Z,57.79
2017-04-17T08:08:01.116Z,57.7
2017-04-17T08:09:01.123Z,57.38
2017-04-17T08:10:01.143Z,57.7
2017-04-17T08:11:01.156Z,57.7
2017-04-17T08:12:01.173Z,57.7
2017-04-17T08:13:01.190Z,57.6
2017-04-17T08:14:01.219Z,57.41
2017-04-17T08:15:01.457Z,57.03
2017-04-17T08:16:01.246Z,57.12
2017-04-17T08:17:01.257Z,57.31
2017-04-17T08:18:01.273Z,57.31
2017-04-17T08:19:01.283Z,57.31
2017-04-17T08:20:01.313Z,56.93
2017-04-17T08:21:01.321Z,57.12
2017-04-17T08:22:01.338Z,57.03
2017-04-17T08:23:01.352Z,56.84
2017-04-17T08:24:01.377Z,57.03
2017-04-17T08:25:01.388Z,56.93
2017-04-17T08:26:01.407Z,57.03
2017-04-17T08:27:01.420Z,56.84
2017-04-17T08:28:01.124Z,56.96
2017-04-17T08:29:01.456Z,56.58
2017-04-17T08:30:01.470Z,56.96
2017-04-17T08:31:01.490Z,56.48
2017-04-17T08:32:01.617Z,56.77
2017-04-17T08:33:01.523Z,56.38
2017-04-17T08:34:01.534Z,56.48
2017-04-17T08:35:01.553Z,55.91
2017-04-17T08:36:01.569Z,55.72
2017-04-17T08:37:01.584Z,55.53
2017-04-17T08:38:01.610Z,55.43
2017-04-17T08:39:01.617Z,55.05
2017-04-17T08:40:01.640Z,54.77
2017-04-17T08:41:01.700Z,54.67
2017-04-17T08:42:01.668Z,55.43
2017-04-17T08:43:01.686Z,54.89
2017-04-17T08:44:01.700Z,55.55
2017-04-17T08:45:01.726Z,55.18
2017-04-17T08:46:01.759Z,55.65
2017-04-17T08:47:01.755Z,55.55
2017-04-17T08:48:01.772Z,55.36
2017-04-17T08:49:01.786Z,55.18
2017-04-17T08:50:01.803Z,55.08
2017-04-17T08:51:01.824Z,54.89
2017-04-17T08:52:01.836Z,54.79
2017-04-17T08:53:01.853Z,54.32
2017-04-17T08:54:01.871Z,54.22
2017-04-17T08:55:01.888Z,54.7
2017-04-17T08:56:01.905Z,54.32
2017-04-17T08:57:01.921Z,54.5
2017-04-17T08:58:01.941Z,54.7
2017-04-17T08:59:01.956Z,54.22
2017-04-17T09:00:01.973Z,54.7
2017-04-17T09:01:01.988Z,54.79
2017-04-17T09:02:02.007Z,54.22
2017-04-17T09:03:02.023Z,53.58
2017-04-17T09:04:02.041Z,54.13
2017-04-17T09:05:02.090Z,54.25
2017-04-17T09:06:02.078Z,54.03
2017-04-17T09:07:02.103Z,54.06
2017-04-17T09:08:02.110Z,54.22
2017-04-17T09:09:02.127Z,54.15
2017-04-17T09:10:02.142Z,53.65
2017-04-17T09:11:02.160Z,53.86
2017-04-17T09:12:02.178Z,54.44
2017-04-17T09:13:02.194Z,53.96
2017-04-17T09:14:01.902Z,53.49
2017-04-17T09:15:02.410Z,53.49
2017-04-17T09:16:02.245Z,54.44
2017-04-17T09:17:02.264Z,53.77
2017-04-17T09:18:02.282Z,53.77
2017-04-17T09:19:01.990Z,53.29
2017-04-17T09:20:02.316Z,52.91
2017-04-17T09:21:02.330Z,52.62
2017-04-17T09:22:02.351Z,53.22
2017-04-17T09:23:02.368Z,52.94
2017-04-17T09:24:02.388Z,52.84
2017-04-17T09:25:02.402Z,52.46
2017-04-17T09:26:02.417Z,52.46
2017-04-17T09:27:02.433Z,52.17
2017-04-17T09:28:02.453Z,51.98
2017-04-17T09:29:02.474Z,51.5
2017-04-17T09:30:02.494Z,51.41
2017-04-17T09:31:02.507Z,51.43
2017-04-17T09:32:02.523Z,51.53
2017-04-17T09:33:02.543Z,51.24
2017-04-17T09:34:02.560Z,51.72
2017-04-17T09:35:02.580Z,51.53
2017-04-17T09:36:02.595Z,51.43
2017-04-17T09:37:02.609Z,51.62
2017-04-17T09:38:02.639Z,51.05
2017-04-17T09:39:02.648Z,50.67
2017-04-17T09:40:02.661Z,51.15
2017-04-17T09:41:02.690Z,51.15
2017-04-17T09:42:02.706Z,50.67
2017-04-17T09:43:02.746Z,50.76
2017-04-17T09:44:02.737Z,50.48
2017-04-17T09:45:02.754Z,50.29
2017-04-17T09:46:02.515Z,50.48
2017-04-17T09:47:02.793Z,50.48
2017-04-17T09:48:02.806Z,50.19
2017-04-17T09:49:02.825Z,49.8
2017-04-17T09:50:02.842Z,50.09
2017-04-17T09:51:02.859Z,50.19
2017-04-17T09:52:02.902Z,49.9
2017-04-17T09:53:02.897Z,49.62
2017-04-17T09:54:02.928Z,49.62
2017-04-17T09:55:02.934Z,50.19
2017-04-17T09:56:02.958Z,50.09
2017-04-17T09:57:02.968Z,49.9
2017-04-17T09:58:02.993Z,49.9
2017-04-17T09:59:03.003Z,50.19
2017-04-17T10:00:03.040Z,49.9
2017-04-17T10:01:03.042Z,49.93
2017-04-17T10:02:03.070Z,49.93
2017-04-17T10:03:03.077Z,49.84
2017-04-17T10:04:03.096Z,49.84
2017-04-17T10:05:03.109Z,49.55
2017-04-17T10:06:02.828Z,49.26
2017-04-17T10:07:03.150Z,49.07
2017-04-17T10:08:02.897Z,49.07
2017-04-17T10:09:03.187Z,49.26
2017-04-17T10:10:03.205Z,49.16
2017-04-17T10:11:03.222Z,48.88
2017-04-17T10:12:03.268Z,48.78
2017-04-17T10:13:03.262Z,48.78
2017-04-17T10:14:02.984Z,48.68
2017-04-17T10:15:03.295Z,48.88
2017-04-17T10:16:03.027Z,48.88
2017-04-17T10:17:03.335Z,48.68
2017-04-17T10:18:03.355Z,49.45
2017-04-17T10:19:03.059Z,49.07
2017-04-17T10:20:03.396Z,48.88
2017-04-17T10:21:03.411Z,49.26
2017-04-17T10:22:03.560Z,48.88
2017-04-17T10:23:03.446Z,48.3
2017-04-17T10:24:03.470Z,48.02
2017-04-17T10:25:03.483Z,48.04
2017-04-17T10:26:03.501Z,47.75
2017-04-17T10:27:03.523Z,47.75
2017-04-17T10:28:03.542Z,47.56
2017-04-17T10:29:03.556Z,47.27
2017-04-17T10:30:03.598Z,47.27
2017-04-17T10:31:03.595Z,47.2
2017-04-17T10:32:03.616Z,46.91
2017-04-17T10:33:03.631Z,46.62
2017-04-17T10:34:03.652Z,46.44
2017-04-17T10:35:03.672Z,46.34
2017-04-17T10:36:03.699Z,46.15
2017-04-17T10:37:03.709Z,46.55
2017-04-17T10:38:03.728Z,45.79
2017-04-17T10:39:03.436Z,45.5
2017-04-17T10:40:03.763Z,45.31
2017-04-17T10:41:03.787Z,45.21
2017-04-17T10:42:03.800Z,45.02
2017-04-17T10:43:03.818Z,44.85
2017-04-17T10:44:03.539Z,44.47
2017-04-17T10:45:03.948Z,44.56
2017-04-17T10:46:03.895Z,44.27
2017-04-17T10:47:03.899Z,43.8
2017-04-17T10:48:03.919Z,43.8
2017-04-17T10:49:03.934Z,43.32
2017-04-17T10:50:03.952Z,43.23
2017-04-17T10:51:03.977Z,43.51
2017-04-17T10:52:03.994Z,43.23
2017-04-17T10:53:04.014Z,43.13
2017-04-17T10:54:04.028Z,43.23
2017-04-17T10:55:04.053Z,43.23
2017-04-17T10:56:04.077Z,43.23
2017-04-17T10:57:04.097Z,43.32
2017-04-17T10:58:04.112Z,42.94
2017-04-17T10:59:04.130Z,42.74
2017-04-17T11:00:03.839Z,42.46
2017-04-17T11:01:04.166Z,42.14
2017-04-17T11:02:03.874Z,41.96
2017-04-17T11:03:03.893Z,42.14
2017-04-17T11:04:04.228Z,42.14
2017-04-17T11:05:04.247Z,41.77
2017-04-17T11:06:04.266Z,41.86
2017-04-17T11:07:04.283Z,42.05
2017-04-17T11:08:03.994Z,42.44
2017-04-17T11:09:04.325Z,42.41
2017-04-17T11:10:04.343Z,43.18
2017-04-17T11:11:04.363Z,43.56
2017-04-17T11:12:04.383Z,43.95
2017-04-17T11:13:04.403Z,44.43
2017-04-17T11:14:04.421Z,45.09
2017-04-17T11:15:04.440Z,45.67
2017-04-17T11:16:04.574Z,46.25
2017-04-17T11:17:04.556Z,46.89
2017-04-17T11:18:04.495Z,46.7
2017-04-17T11:19:04.517Z,46.8
2017-04-17T11:20:04.224Z,46.8
2017-04-17T11:21:04.556Z,47.27
2017-04-17T11:22:04.577Z,46.89
2017-04-17T11:23:04.639Z,47.06
2017-04-17T11:24:04.636Z,47.63
2017-04-17T11:25:04.646Z,47.73
2017-04-17T11:26:04.655Z,47.63
2017-04-17T11:27:04.673Z,47.73
2017-04-17T11:28:04.689Z,48.11
2017-04-17T11:29:04.713Z,47.92
2017-04-17T11:30:04.939Z,48.38
2017-04-17T11:31:04.747Z,47.89
2017-04-17T11:32:04.770Z,48.28
2017-04-17T11:33:04.785Z,48.18
2017-04-17T11:34:04.814Z,48.57
2017-04-17T11:35:04.822Z,48.75
2017-04-17T11:36:04.848Z,49.52
2017-04-17T11:37:04.550Z,49.71
2017-04-17T11:38:04.885Z,49.69
2017-04-17T11:39:04.901Z,49.59
2017-04-17T11:40:04.921Z,50.16
2017-04-17T11:41:04.943Z,50.45
2017-04-17T11:42:04.963Z,50.55
2017-04-17T11:43:04.978Z,50.16
2017-04-17T11:44:04.995Z,50.55
2017-04-17T11:45:05.016Z,50.45
2017-04-17T11:46:05.038Z,50.93
2017-04-17T11:47:05.052Z,50.64
2017-04-17T11:48:05.072Z,50.84
2017-04-17T11:49:05.091Z,50.84
2017-04-17T11:50:05.104Z,50.93
2017-04-17T11:51:05.126Z,51.12
2017-04-17T11:52:05.149Z,51.41
2017-04-17T11:53:05.165Z,51.21
2017-04-17T11:54:05.185Z,51.5
2017-04-17T11:55:05.281Z,51.5
2017-04-17T11:56:05.218Z,51.5
2017-04-17T11:57:05.239Z,51.41
2017-04-17T11:58:05.259Z,51.41
2017-04-17T11:59:05.276Z,51.5
2017-04-17T12:00:05.295Z,51.5
2017-04-17T12:01:05.310Z,51.5
2017-04-17T12:02:05.335Z,51.79
2017-04-17T12:03:05.349Z,51.7
2017-04-17T12:04:05.367Z,51.21
2017-04-17T12:05:05.075Z,51.6
2017-04-17T12:06:05.405Z,51.21
2017-04-17T12:07:05.425Z,51.03
2017-04-17T12:08:05.441Z,51.31
2017-04-17T12:09:05.467Z,51.41
2017-04-17T12:10:05.167Z,51.5
2017-04-17T12:11:05.500Z,51.6
2017-04-17T12:12:05.689Z,51.5
2017-04-17T12:13:05.536Z,51.41
2017-04-17T12:14:05.554Z,51.6
2017-04-17T12:15:05.572Z,51.41
2017-04-17T12:16:05.592Z,51.31
2017-04-17T12:17:05.615Z,51.41
2017-04-17T12:18:05.628Z,51.79
2017-04-17T12:19:05.647Z,51.5
2017-04-17T12:20:05.729Z,51.79
2017-04-17T12:21:05.683Z,51.12
2017-04-17T12:22:05.701Z,51.5
2017-04-17T12:23:05.728Z,51.34
2017-04-17T12:24:05.751Z,51.53
2017-04-17T12:25:05.761Z,51.24
2017-04-17T12:26:05.780Z,51.43
2017-04-17T12:27:05.802Z,51.34
2017-04-17T12:28:05.828Z,51.15
2017-04-17T12:29:05.832Z,51.34
2017-04-17T12:30:05.541Z,51.43
2017-04-17T12:31:05.561Z,51.27
2017-04-17T12:32:05.892Z,51.07
2017-04-17T12:33:05.910Z,50.79
2017-04-17T12:34:05.620Z,50.41
2017-04-17T12:35:05.949Z,50.31
2017-04-17T12:36:05.966Z,50.41
2017-04-17T12:37:05.984Z,50.79
2017-04-17T12:38:06.004Z,50.41
2017-04-17T12:39:06.026Z,50.41
2017-04-17T12:40:05.728Z,50.5
2017-04-17T12:41:05.748Z,50.21
2017-04-17T12:42:06.077Z,50.41
2017-04-17T12:43:06.097Z,50.31
2017-04-17T12:44:05.807Z,50.31
2017-04-17T12:45:06.236Z,50.43
2017-04-17T12:46:06.158Z,50.62
2017-04-17T12:47:06.170Z,50.43
2017-04-17T12:48:06.193Z,50.24
2017-04-17T12:49:06.212Z,50.05
2017-04-17T12:50:06.231Z,50.62
2017-04-17T12:51:06.251Z,50.43
2017-04-17T12:52:06.268Z,50.52
2017-04-17T12:53:06.286Z,50.72
2017-04-17T12:54:06.306Z,49.95
2017-04-17T12:55:06.323Z,50.05
2017-04-17T12:56:06.348Z,50.05
2017-04-17T12:57:06.365Z,49.98